Time;durP1;ratioP1;P1;durP2;ratioP2;P2;SDS_P1;SDS_P2;PMS_P1;PMS_P2;Temp;Humidity;BMP_temperature;BMP_pressure;BME280_temperature;BME280_humidity;BME280_pressure;Samples;Min_cycle;Max_cycle;Signal;HPM_P1;HPM_P2
2022/12/23 00:02:00;;;;;;;14.27;8.40;;;;;;;;;;5036806;28;20032;-73
2022/12/23 00:04:25;;;;;;;14.65;8.40;;;;;;;;;;5054630;28;20036;-73
2022/12/23 00:06:50;;;;;;;14.95;9.13;;;;;;;;;;5037075;28;20049;-73
2022/12/23 00:09:16;;;;;;;13.25;7.63;;;;;;;;;;5054589;28;20033;-73
2022/12/23 00:15:04;;;;;;;13.40;7.88;;;;;;;;;;5054461;28;20040;-73
2022/12/23 00:17:10;;;;;;;12.07;7.20;;;;;;;;;;5054476;28;20052;-72
2022/12/23 00:19:36;;;;;;;11.40;7.30;;;;;;;;;;5036457;28;20116;-68
2022/12/23 00:22:01;;;;;;;10.32;6.38;;;;;;;;;;5054313;28;20021;-67
2022/12/23 00:24:26;;;;;;;9.35;6.40;;;;;;;;;;5054374;28;20344;-67
2022/12/23 00:26:52;;;;;;;11.25;7.43;;;;;;;;;;5036098;28;20033;-67
2022/12/23 00:29:17;;;;;;;12.32;7.47;;;;;;;;;;5054157;28;20040;-68
2022/12/23 00:31:42;;;;;;;12.20;7.80;;;;;;;;;;5054341;28;20131;-68
2022/12/23 00:34:09;;;;;;;10.85;7.25;;;;;;;;;;5053998;28;20025;-68
2022/12/23 00:36:37;;;;;;;13.20;7.78;;;;;;;;;;5053584;28;20074;-68
2022/12/23 00:44:30;;;;;;;10.38;6.88;;;;;;;;;;5053956;28;20108;-69
2022/12/23 00:46:56;;;;;;;11.32;6.93;;;;;;;;;;5053972;28;20063;-69
2022/12/23 00:52:07;;;;;;;8.07;6.47;;;;;;;;;;5053783;28;20037;-73
2022/12/23 00:54:33;;;;;;;7.07;5.88;;;;;;;;;;5053594;28;20024;-73
2022/12/23 00:56:59;;;;;;;10.02;6.30;;;;;;;;;;5053481;28;20025;-73
2022/12/23 00:59:24;;;;;;;6.85;6.15;;;;;;;;;;5053834;28;20063;-73
2022/12/23 01:07:18;;;;;;;6.13;5.40;;;;;;;;;;5053601;28;20036;-73
2022/12/23 01:09:43;;;;;;;6.80;5.95;;;;;;;;;;5053672;28;20025;-69
2022/12/23 01:12:08;;;;;;;6.45;5.40;;;;;;;;;;5053613;28;20453;-69
2022/12/23 01:14:34;;;;;;;7.38;6.15;;;;;;;;;;5053443;28;20048;-69
2022/12/23 01:16:59;;;;;;;7.53;5.90;;;;;;;;;;5053084;28;20096;-73
2022/12/23 01:19:25;;;;;;;7.00;5.90;;;;;;;;;;5053274;28;20457;-73
2022/12/23 01:21:50;;;;;;;7.88;6.35;;;;;;;;;;5053640;28;20032;-73
2022/12/23 01:24:16;;;;;;;7.55;5.78;;;;;;;;;;5053519;28;20009;-70
2022/12/23 01:26:41;;;;;;;7.65;6.28;;;;;;;;;;5053569;28;20070;-70
2022/12/23 01:29:06;;;;;;;8.15;6.53;;;;;;;;;;5053290;28;20106;-69
2022/12/23 01:31:32;;;;;;;9.23;7.07;;;;;;;;;;5053435;28;20144;-70
2022/12/23 01:33:57;;;;;;;7.25;6.25;;;;;;;;;;5053275;28;20380;-72
2022/12/23 01:36:22;;;;;;;9.40;7.68;;;;;;;;;;5053355;28;20040;-72
2022/12/23 01:38:47;;;;;;;9.40;7.43;;;;;;;;;;5053270;28;20435;-69
2022/12/23 01:42:42;;;;;;;10.77;8.48;;;;;;;;;;5053379;28;20032;-69
2022/12/23 01:44:01;;;;;;;8.80;6.85;;;;;;;;;;5053384;28;20117;-69
2022/12/23 01:46:26;;;;;;;9.45;7.45;;;;;;;;;;5053228;28;20056;-70
2022/12/23 01:48:52;;;;;;;9.32;7.05;;;;;;;;;;5053200;28;20086;-71
2022/12/23 01:51:27;;;;;;;11.80;9.45;;;;;;;;;;5053110;28;20025;-71
2022/12/23 01:53:54;;;;;;;7.97;6.60;;;;;;;;;;5035496;28;20120;-71
2022/12/23 01:56:23;;;;;;;11.73;9.18;;;;;;;;;;5035168;28;20060;-69
2022/12/23 01:58:51;;;;;;;11.70;9.18;;;;;;;;;;5053079;28;20028;-69
2022/12/23 02:04:02;;;;;;;11.23;8.73;;;;;;;;;;5053234;28;20040;-67
2022/12/23 02:09:18;;;;;;;9.52;8.05;;;;;;;;;;5038335;28;20036;-67
2022/12/23 02:11:52;;;;;;;9.95;7.72;;;;;;;;;;5056628;28;20540;-68
2022/12/23 02:17:55;;;;;;;9.48;7.95;;;;;;;;;;4956484;29;20039;-72
2022/12/23 02:20:44;;;;;;;8.73;7.28;;;;;;;;;;5056529;28;20037;-72
2022/12/23 02:23:28;;;;;;;10.68;7.82;;;;;;;;;;5038835;28;20040;-73
2022/12/23 02:25:59;;;;;;;13.48;8.52;;;;;;;;;;5022083;28;20506;-72
2022/12/23 02:28:43;;;;;;;11.32;8.15;;;;;;;;;;5056297;28;20061;-72
2022/12/23 02:31:28;;;;;;;10.57;7.50;;;;;;;;;;5056369;28;20025;-72
2022/12/23 02:34:00;;;;;;;10.15;7.18;;;;;;;;;;5038928;28;20495;-72
2022/12/23 02:36:55;;;;;;;9.88;7.47;;;;;;;;;;5056423;28;20029;-72
2022/12/23 02:39:24;;;;;;;10.77;7.53;;;;;;;;;;5034418;28;20041;-72
2022/12/23 02:41:55;;;;;;;13.00;9.13;;;;;;;;;;5056238;28;20063;-72
2022/12/23 02:44:26;;;;;;;13.30;9.70;;;;;;;;;;5056096;28;20496;-72
2022/12/23 02:46:55;;;;;;;9.55;8.00;;;;;;;;;;5055926;28;20033;-72
2022/12/23 02:49:24;;;;;;;11.02;8.15;;;;;;;;;;5038207;28;20040;-72
2022/12/23 02:51:52;;;;;;;12.15;7.65;;;;;;;;;;5056058;28;20061;-72
2022/12/23 02:54:21;;;;;;;14.80;10.93;;;;;;;;;;5055940;28;20108;-72
2022/12/23 02:56:49;;;;;;;13.18;9.77;;;;;;;;;;5037999;28;20036;-72
2022/12/23 02:59:17;;;;;;;12.32;8.80;;;;;;;;;;5055767;28;20028;-72
2022/12/23 03:01:43;;;;;;;9.40;7.90;;;;;;;;;;5055711;28;20032;-72
2022/12/23 03:04:09;;;;;;;10.73;7.97;;;;;;;;;;5055832;28;20025;-72
2022/12/23 03:06:38;;;;;;;10.68;8.15;;;;;;;;;;5037655;28;20373;-72
2022/12/23 03:09:03;;;;;;;10.88;8.07;;;;;;;;;;5037377;28;20424;-72
2022/12/23 03:11:39;;;;;;;8.48;6.88;;;;;;;;;;5055744;28;20055;-72
2022/12/23 03:14:16;;;;;;;9.85;7.10;;;;;;;;;;5055414;28;20037;-73
2022/12/23 03:16:53;;;;;;;9.18;6.50;;;;;;;;;;5055311;28;20041;-73
2022/12/23 03:19:33;;;;;;;8.63;6.82;;;;;;;;;;5055255;28;20025;-73
2022/12/23 03:21:59;;;;;;;;;;;;;;;;;;5055990;28;20427;-68
2022/12/23 03:24:39;;;;;;;6.57;4.63;;;;;;;;;;5055798;28;19905;-73
2022/12/23 03:27:17;;;;;;;6.70;6.03;;;;;;;;;;5055361;28;20086;-72
2022/12/23 03:29:52;;;;;;;8.80;6.32;;;;;;;;;;5055357;28;20362;-72
2022/12/23 03:32:18;;;;;;;6.85;5.22;;;;;;;;;;5055401;28;20029;-69
2022/12/23 03:34:46;;;;;;;7.63;6.22;;;;;;;;;;5055121;28;20029;-69
2022/12/23 03:37:13;;;;;;;6.68;5.22;;;;;;;;;;5055257;28;20088;-69
2022/12/23 03:39:46;;;;;;;6.03;5.45;;;;;;;;;;5054913;28;20041;-68
2022/12/23 03:42:16;;;;;;;6.18;5.57;;;;;;;;;;5055298;28;20112;-69
2022/12/23 03:44:43;;;;;;;6.22;5.57;;;;;;;;;;5055021;28;20095;-70
2022/12/23 03:47:11;;;;;;;4.95;4.53;;;;;;;;;;5054962;28;20367;-70
2022/12/23 03:49:41;;;;;;;5.10;4.63;;;;;;;;;;5054863;28;20090;-68
2022/12/23 03:52:12;;;;;;;6.07;5.40;;;;;;;;;;5055002;28;20036;-68
2022/12/23 03:54:43;;;;;;;4.53;4.13;;;;;;;;;;5054713;28;20115;-69
2022/12/23 03:57:09;;;;;;;6.60;5.30;;;;;;;;;;5054662;28;20039;-68
2022/12/23 03:59:37;;;;;;;4.93;4.47;;;;;;;;;;5054757;28;20342;-69
2022/12/23 04:02:07;;;;;;;5.28;4.80;;;;;;;;;;5036937;28;20083;-68
2022/12/23 04:04:35;;;;;;;5.45;4.78;;;;;;;;;;5054571;28;20029;-68
2022/12/23 04:07:09;;;;;;;6.05;4.72;;;;;;;;;;5054526;28;20071;-68
2022/12/23 04:09:34;;;;;;;5.93;4.63;;;;;;;;;;5054550;28;20044;-67
2022/12/23 04:12:00;;;;;;;4.35;4.05;;;;;;;;;;5054340;28;20025;-68
2022/12/23 04:14:25;;;;;;;6.03;5.30;;;;;;;;;;5054474;28;20449;-68
2022/12/23 04:16:53;;;;;;;6.20;4.85;;;;;;;;;;5054279;28;20037;-68
2022/12/23 04:19:18;;;;;;;5.82;4.88;;;;;;;;;;5052110;28;20052;-68
2022/12/23 04:21:43;;;;;;;5.38;4.80;;;;;;;;;;5054326;28;20028;-68
2022/12/23 04:24:09;;;;;;;4.75;4.25;;;;;;;;;;5054370;28;20121;-72
2022/12/23 04:26:34;;;;;;;4.78;4.25;;;;;;;;;;5054139;28;20021;-72
2022/12/23 04:28:59;;;;;;;4.93;4.45;;;;;;;;;;5054514;28;20116;-72
2022/12/23 04:31:25;;;;;;;5.40;4.85;;;;;;;;;;5053877;28;20072;-72
2022/12/23 04:33:51;;;;;;;6.88;5.55;;;;;;;;;;5036318;28;20036;-72
2022/12/23 04:36:16;;;;;;;4.65;4.18;;;;;;;;;;5054233;28;20435;-72
2022/12/23 04:38:41;;;;;;;5.05;4.53;;;;;;;;;;5054143;28;20385;-72
2022/12/23 04:41:07;;;;;;;6.47;5.07;;;;;;;;;;5054250;28;20029;-72
2022/12/23 04:43:32;;;;;;;6.07;5.25;;;;;;;;;;5054189;28;20025;-72
2022/12/23 04:45:57;;;;;;;5.40;4.47;;;;;;;;;;5054272;28;20109;-68
2022/12/23 04:48:23;;;;;;;5.00;4.55;;;;;;;;;;5054169;28;20044;-69
2022/12/23 04:50:48;;;;;;;5.35;4.85;;;;;;;;;;5054115;28;20070;-68
2022/12/23 04:53:14;;;;;;;5.43;4.93;;;;;;;;;;5054188;28;20029;-72
2022/12/23 04:55:40;;;;;;;6.97;6.35;;;;;;;;;;5054296;28;20388;-72
2022/12/23 04:58:05;;;;;;;6.78;6.07;;;;;;;;;;5053813;28;20024;-72
2022/12/23 05:00:30;;;;;;;7.47;6.53;;;;;;;;;;5053463;28;20053;-72
2022/12/23 05:02:57;;;;;;;9.10;6.63;;;;;;;;;;5053990;28;20033;-74
2022/12/23 05:05:22;;;;;;;7.90;7.10;;;;;;;;;;5053913;28;20028;-73
2022/12/23 05:07:48;;;;;;;8.98;7.55;;;;;;;;;;5053802;28;20389;-73
2022/12/23 05:10:13;;;;;;;8.25;7.45;;;;;;;;;;5053720;28;20108;-73
2022/12/23 05:12:39;;;;;;;8.57;7.68;;;;;;;;;;5053479;28;20067;-73
2022/12/23 05:15:04;;;;;;;8.55;7.47;;;;;;;;;;5053637;28;20124;-73
2022/12/23 05:17:29;;;;;;;11.25;8.63;;;;;;;;;;5053032;28;20017;-72
2022/12/23 05:19:55;;;;;;;14.77;11.10;;;;;;;;;;5052893;28;20398;-73
2022/12/23 05:22:20;;;;;;;19.35;11.60;;;;;;;;;;5053858;28;20032;-73
2022/12/23 05:24:46;;;;;;;20.85;12.30;;;;;;;;;;5053795;28;20033;-72
2022/12/23 05:27:11;;;;;;;18.20;12.98;;;;;;;;;;5053924;28;20116;-71
2022/12/23 05:29:36;;;;;;;18.58;11.63;;;;;;;;;;5053677;28;20483;-72
2022/12/23 05:32:02;;;;;;;14.25;11.23;;;;;;;;;;5053100;28;20045;-73
2022/12/23 05:34:27;;;;;;;13.48;10.77;;;;;;;;;;5053797;28;20028;-73
2022/12/23 05:36:52;;;;;;;18.20;12.82;;;;;;;;;;5053352;28;20021;-73
2022/12/23 05:39:18;;;;;;;14.73;11.38;;;;;;;;;;5053695;28;20108;-73
2022/12/23 05:41:44;;;;;;;19.23;13.95;;;;;;;;;;5053761;28;20036;-73
2022/12/23 05:44:10;;;;;;;18.33;13.90;;;;;;;;;;5056376;28;20047;-73
2022/12/23 05:46:35;;;;;;;21.58;15.88;;;;;;;;;;5057264;28;20021;-72
2022/12/23 05:49:00;;;;;;;17.98;14.48;;;;;;;;;;5057462;28;20032;-72
2022/12/23 05:51:26;;;;;;;18.88;15.30;;;;;;;;;;5057514;28;20024;-72
2022/12/23 05:53:51;;;;;;;21.67;17.30;;;;;;;;;;5057259;28;20029;-72
2022/12/23 05:56:16;;;;;;;21.15;16.75;;;;;;;;;;5057309;28;20380;-72
2022/12/23 05:58:42;;;;;;;22.17;17.92;;;;;;;;;;5057312;28;20056;-72
2022/12/23 06:01:07;;;;;;;26.80;18.67;;;;;;;;;;5056441;28;20051;-72
2022/12/23 06:03:33;;;;;;;28.58;20.60;;;;;;;;;;5056966;28;20032;-72
2022/12/23 06:05:58;;;;;;;34.17;22.85;;;;;;;;;;5056612;28;20533;-73
2022/12/23 06:08:24;;;;;;;29.42;20.20;;;;;;;;;;5056710;28;20078;-73
2022/12/23 06:10:49;;;;;;;21.63;16.63;;;;;;;;;;5056041;28;20029;-72
2022/12/23 06:13:14;;;;;;;21.27;15.45;;;;;;;;;;5055436;28;20029;-72
2022/12/23 06:15:40;;;;;;;17.52;14.43;;;;;;;;;;5055400;28;20524;-69
2022/12/23 06:18:05;;;;;;;17.00;13.55;;;;;;;;;;5055948;28;20021;-68
2022/12/23 06:20:30;;;;;;;20.55;15.32;;;;;;;;;;5055995;28;20099;-69
2022/12/23 06:22:56;;;;;;;23.15;16.40;;;;;;;;;;5056222;28;20082;-68
2022/12/23 06:25:21;;;;;;;36.50;23.15;;;;;;;;;;5056005;28;20032;-70
2022/12/23 06:27:47;;;;;;;30.60;21.05;;;;;;;;;;5055752;28;20037;-69
2022/12/23 06:30:12;;;;;;;27.75;18.60;;;;;;;;;;5055935;28;20023;-70
2022/12/23 06:32:38;;;;;;;24.00;17.17;;;;;;;;;;5055136;28;20547;-70
2022/12/23 06:35:03;;;;;;;22.80;15.80;;;;;;;;;;5054351;28;20047;-70
2022/12/23 06:37:29;;;;;;;26.23;17.95;;;;;;;;;;5036581;28;20380;-70
2022/12/23 06:39:54;;;;;;;25.50;17.88;;;;;;;;;;5054298;28;20029;-69
2022/12/23 06:42:20;;;;;;;24.55;17.92;;;;;;;;;;5053315;28;20060;-70
2022/12/23 06:44:45;;;;;;;27.98;18.70;;;;;;;;;;5053405;28;20029;-70
2022/12/23 06:50:45;;;;;;;42.83;26.85;;;;;;;;;;5056031;28;20020;-71
2022/12/23 06:56:46;;;;;;;35.60;22.95;;;;;;;;;;5055991;28;20123;-70
2022/12/23 07:02:47;;;;;;;35.53;23.90;;;;;;;;;;5055871;28;20047;-70
2022/12/23 07:08:49;;;;;;;29.65;18.50;;;;;;;;;;5055767;28;20071;-70
2022/12/23 07:14:50;;;;;;;31.33;19.63;;;;;;;;;;5055525;28;20083;-70
2022/12/23 07:24:37;;;;;;;38.35;28.73;;;;;;;;;;5055142;28;20504;-70
2022/12/23 07:30:37;;;;;;;27.77;19.25;;;;;;;;;;5055343;28;20028;-70
2022/12/23 07:36:38;;;;;;;23.27;18.13;;;;;;;;;;5054939;28;20117;-70
2022/12/23 07:42:38;;;;;;;23.45;16.35;;;;;;;;;;5055030;28;20039;-70
2022/12/23 07:45:04;;;;;;;20.58;17.00;;;;;;;;;;5054691;28;20504;-70
2022/12/23 07:47:29;;;;;;;21.40;16.95;;;;;;;;;;5054484;28;20025;-70
2022/12/23 07:49:55;;;;;;;26.30;18.52;;;;;;;;;;5055153;28;20021;-70
2022/12/23 07:52:20;;;;;;;25.17;20.67;;;;;;;;;;5055075;28;20064;-71
2022/12/23 07:54:45;;;;;;;24.83;18.30;;;;;;;;;;5054932;28;20029;-71
2022/12/23 07:57:11;;;;;;;21.65;17.38;;;;;;;;;;5054927;28;20059;-70
2022/12/23 07:59:36;;;;;;;19.63;15.82;;;;;;;;;;5054995;28;20101;-70
2022/12/23 08:02:01;;;;;;;18.67;15.38;;;;;;;;;;5036459;28;20449;-70
2022/12/23 08:04:27;;;;;;;17.25;14.95;;;;;;;;;;5054465;28;20384;-70
2022/12/23 08:06:52;;;;;;;20.40;14.80;;;;;;;;;;5053506;28;20029;-70
2022/12/23 08:09:17;;;;;;;18.48;14.57;;;;;;;;;;5054381;28;20028;-70
2022/12/23 08:11:44;;;;;;;18.35;14.15;;;;;;;;;;5054221;28;20033;-70
2022/12/23 08:14:09;;;;;;;18.13;13.65;;;;;;;;;;5054178;28;20103;-70
2022/12/23 08:16:34;;;;;;;17.52;12.43;;;;;;;;;;5054076;28;20563;-70
2022/12/23 08:19:00;;;;;;;15.63;12.48;;;;;;;;;;5036283;28;20032;-71
2022/12/23 08:21:25;;;;;;;14.93;11.85;;;;;;;;;;5053845;28;20107;-71
2022/12/23 08:23:50;;;;;;;13.48;10.90;;;;;;;;;;5054071;28;20393;-70
2022/12/23 08:26:17;;;;;;;11.63;9.93;;;;;;;;;;5053947;28;20025;-70
2022/12/23 08:28:43;;;;;;;11.95;10.02;;;;;;;;;;5053932;28;20040;-70
2022/12/23 08:31:13;;;;;;;11.23;10.13;;;;;;;;;;5053861;28;20040;-70
2022/12/23 08:33:39;;;;;;;12.90;11.03;;;;;;;;;;5053887;28;20033;-70
2022/12/23 08:36:05;;;;;;;17.13;12.70;;;;;;;;;;5053838;28;20116;-71
2022/12/23 08:38:31;;;;;;;17.58;14.07;;;;;;;;;;5053827;28;20033;-70
2022/12/23 08:40:57;;;;;;;26.17;18.23;;;;;;;;;;5053737;28;20100;-70
2022/12/23 08:43:22;;;;;;;27.50;19.13;;;;;;;;;;5053652;28;20092;-71
2022/12/23 08:45:47;;;;;;;28.08;20.30;;;;;;;;;;5053550;28;20020;-71
2022/12/23 08:48:13;;;;;;;29.25;22.00;;;;;;;;;;5053039;28;20057;-70
2022/12/23 08:50:39;;;;;;;28.80;20.95;;;;;;;;;;5053148;28;20512;-70
2022/12/23 08:53:04;;;;;;;25.38;19.40;;;;;;;;;;5052520;28;20594;-71
2022/12/23 08:55:30;;;;;;;24.67;17.92;;;;;;;;;;5052695;28;20380;-70
2022/12/23 08:57:55;;;;;;;18.58;14.52;;;;;;;;;;5052184;28;20465;-70
2022/12/23 09:00:20;;;;;;;15.43;13.05;;;;;;;;;;5052378;28;20021;-70
2022/12/23 09:02:46;;;;;;;12.80;10.75;;;;;;;;;;5051992;28;20116;-70
2022/12/23 09:05:11;;;;;;;12.90;9.90;;;;;;;;;;5052069;28;20041;-71
2022/12/23 09:07:36;;;;;;;12.55;10.00;;;;;;;;;;5051987;28;20041;-70
2022/12/23 09:10:02;;;;;;;11.43;8.82;;;;;;;;;;5052266;28;20027;-70
2022/12/23 09:12:27;;;;;;;14.55;11.45;;;;;;;;;;5052243;28;20562;-70
2022/12/23 09:14:52;;;;;;;15.45;11.90;;;;;;;;;;5051767;28;20036;-70
2022/12/23 09:17:18;;;;;;;18.08;13.43;;;;;;;;;;5055286;28;20044;-71
2022/12/23 09:19:44;;;;;;;20.02;14.63;;;;;;;;;;5058683;28;20438;-71
2022/12/23 09:22:09;;;;;;;18.85;14.15;;;;;;;;;;5058833;28;20025;-71
2022/12/23 09:24:34;;;;;;;17.83;13.00;;;;;;;;;;5058753;28;20488;-70
2022/12/23 09:26:59;;;;;;;15.23;11.98;;;;;;;;;;5040939;28;20465;-70
2022/12/23 09:29:25;;;;;;;16.33;12.15;;;;;;;;;;5058488;28;20036;-70
2022/12/23 09:31:50;;;;;;;14.60;11.70;;;;;;;;;;5058732;28;20031;-70
2022/12/23 09:34:15;;;;;;;13.90;10.70;;;;;;;;;;5058680;28;20383;-70
2022/12/23 09:36:40;;;;;;;17.60;13.15;;;;;;;;;;5058648;28;20037;-70
2022/12/23 09:39:06;;;;;;;14.95;11.88;;;;;;;;;;5058714;28;20445;-70
2022/12/23 09:41:43;;;;;;;15.20;11.35;;;;;;;;;;5058573;28;20032;-70
2022/12/23 09:44:36;;;;;;;11.80;9.63;;;;;;;;;;5040862;28;20065;-70
2022/12/23 09:47:03;;;;;;;10.75;9.20;;;;;;;;;;5058531;28;20040;-70
2022/12/23 09:49:28;;;;;;;11.75;8.82;;;;;;;;;;5058837;28;20040;-70
2022/12/23 09:51:58;;;;;;;11.10;8.90;;;;;;;;;;5058574;28;20013;-70
2022/12/23 09:54:28;;;;;;;10.07;7.72;;;;;;;;;;5058474;28;20079;-70
2022/12/23 09:56:56;;;;;;;9.18;7.15;;;;;;;;;;5058512;28;20047;-71
2022/12/23 09:59:25;;;;;;;10.50;8.27;;;;;;;;;;5058479;28;20504;-70
2022/12/23 10:01:56;;;;;;;9.35;7.75;;;;;;;;;;5058736;28;20037;-70
2022/12/23 10:04:21;;;;;;;9.88;8.45;;;;;;;;;;5040588;28;20484;-70
2022/12/23 10:06:50;;;;;;;10.10;8.20;;;;;;;;;;5058364;28;20067;-70
2022/12/23 10:09:16;;;;;;;10.02;7.78;;;;;;;;;;5058669;28;20045;-70
2022/12/23 10:11:42;;;;;;;8.80;7.68;;;;;;;;;;5058416;28;20067;-71
2022/12/23 10:14:26;;;;;;;9.93;8.15;;;;;;;;;;5058414;28;20115;-71
2022/12/23 10:16:56;;;;;;;8.85;7.43;;;;;;;;;;5058465;28;20113;-71
2022/12/23 10:19:21;;;;;;;10.15;7.82;;;;;;;;;;5058480;28;20087;-70
2022/12/23 10:21:49;;;;;;;8.57;7.55;;;;;;;;;;5040133;28;20453;-71
2022/12/23 10:24:36;;;;;;;10.00;7.85;;;;;;;;;;5057817;28;20106;-74
2022/12/23 10:27:05;;;;;;;9.05;6.15;;;;;;;;;;5040082;28;20032;-74
2022/12/23 10:29:31;;;;;;;8.23;7.15;;;;;;;;;;5054997;28;20480;-73
2022/12/23 10:32:02;;;;;;;9.20;7.00;;;;;;;;;;5054511;28;20025;-73
2022/12/23 10:34:30;;;;;;;8.63;7.18;;;;;;;;;;5054647;28;20060;-73
2022/12/23 10:37:01;;;;;;;10.27;7.43;;;;;;;;;;5054975;28;20541;-73
2022/12/23 10:39:38;;;;;;;8.85;7.75;;;;;;;;;;5055019;28;20472;-72
2022/12/23 10:42:13;;;;;;;8.27;7.05;;;;;;;;;;5054890;28;20416;-71
2022/12/23 10:44:52;;;;;;;6.95;6.00;;;;;;;;;;5054860;28;20037;-72
2022/12/23 10:47:38;;;;;;;8.13;7.10;;;;;;;;;;5055874;28;20033;-72
2022/12/23 10:50:22;;;;;;;8.52;7.07;;;;;;;;;;5005262;28;20114;-72
2022/12/23 10:52:48;;;;;;;8.82;7.30;;;;;;;;;;5055786;28;20054;-71
2022/12/23 10:55:28;;;;;;;8.45;7.55;;;;;;;;;;5055755;28;20471;-72
2022/12/23 10:57:56;;;;;;;9.23;6.27;;;;;;;;;;5055834;28;20377;-72
2022/12/23 11:00:21;;;;;;;7.65;5.00;;;;;;;;;;5037766;28;20031;-73
2022/12/23 11:03:06;;;;;;;7.32;6.32;;;;;;;;;;5037982;28;20104;-73
2022/12/23 11:05:31;;;;;;;8.13;6.78;;;;;;;;;;5055783;28;20040;-72
2022/12/23 11:07:57;;;;;;;7.75;6.32;;;;;;;;;;5055478;28;20033;-72
2022/12/23 11:10:27;;;;;;;10.77;6.18;;;;;;;;;;5037509;28;20036;-71
2022/12/23 11:12:52;;;;;;;8.20;7.03;;;;;;;;;;5055275;28;20122;-71
2022/12/23 11:15:24;;;;;;;6.95;5.57;;;;;;;;;;5054811;28;20056;-71
2022/12/23 11:18:12;;;;;;;7.88;5.90;;;;;;;;;;5054409;28;20108;-71
2022/12/23 11:20:39;;;;;;;9.18;6.57;;;;;;;;;;5040908;28;20041;-71
2022/12/23 11:23:05;;;;;;;9.48;6.88;;;;;;;;;;5036320;28;20425;-75
2022/12/23 11:25:41;;;;;;;8.50;6.35;;;;;;;;;;5054904;28;20036;-70
2022/12/23 11:28:09;;;;;;;8.75;6.88;;;;;;;;;;5054046;28;20033;-70
2022/12/23 11:30:45;;;;;;;11.63;7.82;;;;;;;;;;5054232;28;20499;-70
2022/12/23 11:33:23;;;;;;;7.65;5.65;;;;;;;;;;5054633;28;20040;-70
2022/12/23 11:35:58;;;;;;;8.38;5.85;;;;;;;;;;5054294;28;20433;-70
2022/12/23 11:38:23;;;;;;;10.10;6.75;;;;;;;;;;5053885;28;20384;-70
2022/12/23 11:40:49;;;;;;;7.57;6.22;;;;;;;;;;5052698;28;20037;-70
2022/12/23 11:43:15;;;;;;;8.77;6.55;;;;;;;;;;5053809;28;20033;-70
2022/12/23 11:45:41;;;;;;;14.38;8.40;;;;;;;;;;5053839;28;20025;-69
2022/12/23 11:48:25;;;;;;;10.10;8.10;;;;;;;;;;5053796;28;20697;-70
2022/12/23 11:51:00;;;;;;;11.98;7.22;;;;;;;;;;5053702;28;20040;-70
2022/12/23 11:53:26;;;;;;;12.88;7.75;;;;;;;;;;5053618;28;20021;-70
2022/12/23 11:56:04;;;;;;;10.85;7.65;;;;;;;;;;5053430;28;20546;-70
2022/12/23 11:58:31;;;;;;;12.60;7.80;;;;;;;;;;5053544;28;20465;-70
2022/12/23 12:00:58;;;;;;;14.93;10.32;;;;;;;;;;5053507;28;20043;-70
2022/12/23 12:03:26;;;;;;;13.27;7.80;;;;;;;;;;5053446;28;20052;-76
2022/12/23 12:06:02;;;;;;;10.85;7.30;;;;;;;;;;5053388;28;20037;-71
2022/12/23 12:08:31;;;;;;;9.38;6.50;;;;;;;;;;5053399;28;20057;-69
2022/12/23 12:11:01;;;;;;;14.95;9.27;;;;;;;;;;5053296;28;20509;-77
2022/12/23 12:13:31;;;;;;;13.02;8.68;;;;;;;;;;5053443;28;20053;-75
2022/12/23 12:16:04;;;;;;;13.07;10.45;;;;;;;;;;5052923;28;20036;-71
2022/12/23 12:18:31;;;;;;;13.02;9.48;;;;;;;;;;5053212;28;20025;-71
2022/12/23 12:20:59;;;;;;;11.23;8.07;;;;;;;;;;5052988;28;20044;-71
2022/12/23 12:23:43;;;;;;;10.98;7.82;;;;;;;;;;5018745;28;20061;-71
2022/12/23 12:26:19;;;;;;;10.98;8.07;;;;;;;;;;5035169;28;20452;-71
2022/12/23 12:28:47;;;;;;;12.63;8.45;;;;;;;;;;5035138;28;20033;-71
2022/12/23 12:31:31;;;;;;;8.27;6.45;;;;;;;;;;5052396;28;20057;-70
2022/12/23 12:34:00;;;;;;;8.55;5.65;;;;;;;;;;5052932;28;20048;-71
2022/12/23 12:36:45;;;;;;;6.20;5.25;;;;;;;;;;5052494;28;20095;-71
2022/12/23 12:39:19;;;;;;;5.15;4.47;;;;;;;;;;5052238;28;20083;-71
2022/12/23 12:41:51;;;;;;;5.75;4.97;;;;;;;;;;5054106;28;20047;-71
2022/12/23 12:44:19;;;;;;;6.72;5.05;;;;;;;;;;5053842;28;20029;-71
2022/12/23 12:46:46;;;;;;;6.05;4.43;;;;;;;;;;5052856;28;20029;-71
2022/12/23 12:49:30;;;;;;;5.57;4.55;;;;;;;;;;5052805;28;20045;-71
2022/12/23 12:52:14;;;;;;;6.63;3.90;;;;;;;;;;5052410;28;20029;-71
2022/12/23 12:54:43;;;;;;;5.53;4.10;;;;;;;;;;5052729;28;20040;-71
2022/12/23 12:57:13;;;;;;;6.05;4.25;;;;;;;;;;5052394;28;20025;-71
2022/12/23 12:59:39;;;;;;;4.75;4.20;;;;;;;;;;5052782;28;20461;-71
2022/12/23 13:02:23;;;;;;;6.25;4.75;;;;;;;;;;5053405;28;20032;-71
2022/12/23 13:05:00;;;;;;;5.47;4.05;;;;;;;;;;5053598;28;20037;-71
2022/12/23 13:07:44;;;;;;;4.40;4.00;;;;;;;;;;5053524;28;20032;-71
2022/12/23 13:10:09;;;;;;;4.65;4.03;;;;;;;;;;5053427;28;20040;-71
2022/12/23 13:12:58;;;;;;;5.22;4.38;;;;;;;;;;5035834;28;20029;-71
2022/12/23 13:15:33;;;;;;;5.68;3.92;;;;;;;;;;5053231;28;20037;-71
2022/12/23 13:18:04;;;;;;;3.85;3.25;;;;;;;;;;5052918;28;20021;-71
2022/12/23 13:20:32;;;;;;;4.40;3.58;;;;;;;;;;5035400;28;20080;-59
2022/12/23 13:23:02;;;;;;;5.72;4.18;;;;;;;;;;5053368;28;20029;-71
2022/12/23 13:25:37;;;;;;;6.47;5.07;;;;;;;;;;5035505;28;20120;-71
2022/12/23 13:28:20;;;;;;;5.47;4.10;;;;;;;;;;5053683;28;20093;-71
2022/12/23 13:30:56;;;;;;;5.65;4.40;;;;;;;;;;5053653;28;20029;-71
2022/12/23 13:33:45;;;;;;;5.90;4.00;;;;;;;;;;5053786;28;20061;-69
2022/12/23 13:36:15;;;;;;;5.53;4.32;;;;;;;;;;5040918;28;20044;-55
2022/12/23 13:38:53;;;;;;;8.10;5.53;;;;;;;;;;5053877;28;20033;-55
2022/12/23 13:41:24;;;;;;;10.77;6.13;;;;;;;;;;5053598;28;20112;-71
2022/12/23 13:43:56;;;;;;;11.30;6.22;;;;;;;;;;5036065;28;20037;-71
2022/12/23 13:46:30;;;;;;;11.10;5.95;;;;;;;;;;5052927;28;20033;-71
2022/12/23 13:49:06;;;;;;;10.55;5.35;;;;;;;;;;5053015;28;20473;-71
2022/12/23 13:51:36;;;;;;;9.02;5.75;;;;;;;;;;5053391;28;20033;-71
2022/12/23 13:54:07;;;;;;;8.60;6.32;;;;;;;;;;5052687;28;20465;-71
2022/12/23 13:56:56;;;;;;;9.75;6.32;;;;;;;;;;5052895;28;20477;-71
2022/12/23 13:59:21;;;;;;;12.80;6.97;;;;;;;;;;5039757;28;20081;-73
2022/12/23 14:01:47;;;;;;;7.25;5.32;;;;;;;;;;5052979;28;20032;-71
2022/12/23 14:04:41;;;;;;;9.02;5.68;;;;;;;;;;5054404;28;20480;-71
2022/12/23 14:07:18;;;;;;;8.43;5.65;;;;;;;;;;4968454;28;20155;-72
2022/12/23 14:09:45;;;;;;;6.55;5.03;;;;;;;;;;5056624;28;20032;-74
2022/12/23 14:12:15;;;;;;;9.75;6.65;;;;;;;;;;5056616;28;20064;-73
2022/12/23 14:14:45;;;;;;;8.77;5.80;;;;;;;;;;5038585;28;20037;-59
2022/12/23 14:17:17;;;;;;;10.15;6.15;;;;;;;;;;5056468;28;20540;-71
2022/12/23 14:19:57;;;;;;;9.90;6.18;;;;;;;;;;5056130;28;20040;-68
2022/12/23 14:22:41;;;;;;;9.80;6.50;;;;;;;;;;5056519;28;20024;-69
2022/12/23 14:25:31;;;;;;;12.50;7.15;;;;;;;;;;5056067;28;20086;-69
2022/12/23 14:27:59;;;;;;;10.45;7.03;;;;;;;;;;5056419;28;20032;-69
2022/12/23 14:30:24;;;;;;;11.00;6.50;;;;;;;;;;5056097;28;20091;-69
2022/12/23 14:33:00;;;;;;;11.35;7.13;;;;;;;;;;5056316;28;20025;-70
2022/12/23 14:35:45;;;;;;;13.82;7.22;;;;;;;;;;5056115;28;20037;-69
2022/12/23 14:38:14;;;;;;;11.15;6.55;;;;;;;;;;5055993;28;20051;-69
2022/12/23 14:40:42;;;;;;;12.80;7.28;;;;;;;;;;5055997;28;20070;-70
2022/12/23 14:43:25;;;;;;;12.38;7.95;;;;;;;;;;5055909;28;20032;-70
2022/12/23 14:45:52;;;;;;;13.00;8.02;;;;;;;;;;5055986;28;20037;-70
2022/12/23 14:48:33;;;;;;;11.98;8.05;;;;;;;;;;5056065;28;20021;-70
2022/12/23 14:51:07;;;;;;;22.23;10.30;;;;;;;;;;5055148;28;20087;-71
2022/12/23 14:53:34;;;;;;;19.25;9.40;;;;;;;;;;5054378;28;20421;-70
2022/12/23 14:56:08;;;;;;;16.42;9.25;;;;;;;;;;5054248;28;20380;-67
2022/12/23 14:58:53;;;;;;;13.00;8.40;;;;;;;;;;5054307;28;20080;-72
2022/12/23 15:01:37;;;;;;;11.02;7.63;;;;;;;;;;4987244;28;20063;-72
2022/12/23 15:04:11;;;;;;;9.88;7.60;;;;;;;;;;5055200;28;20087;-73
2022/12/23 15:06:41;;;;;;;14.95;9.95;;;;;;;;;;5037185;28;20473;-73
2022/12/23 15:09:08;;;;;;;21.13;11.50;;;;;;;;;;5052766;28;20111;-72
2022/12/23 15:11:34;;;;;;;25.08;12.93;;;;;;;;;;5053902;28;20025;-73
2022/12/23 15:14:02;;;;;;;19.58;12.55;;;;;;;;;;5054809;28;20029;-72
2022/12/23 15:16:29;;;;;;;19.98;11.98;;;;;;;;;;5054458;28;20025;-72
2022/12/23 15:18:55;;;;;;;26.38;15.82;;;;;;;;;;5054762;28;20056;-72
2022/12/23 15:21:26;;;;;;;30.27;18.80;;;;;;;;;;5054850;28;20143;-72
2022/12/23 15:23:51;;;;;;;25.55;15.90;;;;;;;;;;5055012;28;20029;-72
2022/12/23 15:26:18;;;;;;;22.60;13.77;;;;;;;;;;5036907;28;20029;-72
2022/12/23 15:28:43;;;;;;;17.60;11.25;;;;;;;;;;5054825;28;20057;-72
2022/12/23 15:31:21;;;;;;;15.27;11.00;;;;;;;;;;5055055;28;20068;-72
2022/12/23 15:33:46;;;;;;;16.40;10.35;;;;;;;;;;5054510;28;20033;-72
2022/12/23 15:36:12;;;;;;;16.27;10.80;;;;;;;;;;5036384;28;20040;-72
2022/12/23 15:38:37;;;;;;;16.33;12.40;;;;;;;;;;5054654;28;20550;-72
2022/12/23 15:41:13;;;;;;;20.20;14.38;;;;;;;;;;5054567;28;20024;-71
2022/12/23 15:43:42;;;;;;;25.92;17.27;;;;;;;;;;5054456;28;20175;-71
2022/12/23 15:46:14;;;;;;;35.85;23.20;;;;;;;;;;5054621;28;20033;-72